HESH/SSH METAR and TAF weather

Enter ICAO airport designator
Station Type Date Time Source
HESH METAR 2020/01/22 14:00 UTC NOAA

HESH 221400Z 01012KT 9999 FEW025 SCT030 17/13 Q1020 NOSIG


Station Type Date Time Source
HESH Decoded METAR 2020/01/22 14:00 UTC NOAA

Sharm El Sheikhintl, Egypt (HESH) 27-58N 034-23E
Jan 22, 2020 - 09:00 AM EST / 2020.01.22 1400 UTC
Wind: from the N (010 degrees) at 14 MPH (12 KT):0
Visibility: greater than 7 mile(s):0
Sky conditions: partly cloudy
Temperature: 62 F (17 C)
Dew Point: 55 F (13 C)
Relative Humidity: 77%
Pressure (altimeter): 30.12 in. Hg (1020 hPa)
ob: HESH 221400Z 01012KT 9999 FEW025 SCT030 17/13 Q1020 NOSIG
cycle: 14

Station Type Date Time Source
HESH TAF 2020/01/22 12:03 UTC NOAA

TAF HESH 221100Z 2212/2318 01014KT 9999 FEW030

Example: see airport list